createdAt,value
2022-08-08T00:00:50.580Z,14.76
2022-08-08T00:03:53.201Z,14.71
2022-08-08T00:06:52.586Z,14.67
2022-08-08T00:10:12.319Z,14.66
2022-08-08T00:13:20.697Z,14.65
2022-08-08T00:16:12.348Z,14.63
2022-08-08T00:19:04.777Z,14.62
2022-08-08T00:21:58.090Z,14.61
2022-08-08T00:24:47.417Z,14.59
2022-08-08T00:27:21.207Z,14.56
2022-08-08T00:30:15.866Z,14.54
2022-08-08T00:33:04.412Z,14.52
2022-08-08T00:35:51.373Z,14.50
2022-08-08T00:38:54.578Z,14.48
2022-08-08T00:41:54.483Z,14.46
2022-08-08T00:44:44.085Z,14.43
2022-08-08T00:48:06.363Z,14.42
2022-08-08T00:51:51.139Z,14.38
2022-08-08T00:54:57.686Z,14.34
2022-08-08T00:58:13.550Z,14.30
2022-08-08T01:01:38.046Z,14.25
2022-08-08T01:05:07.157Z,14.17
2022-08-08T01:08:17.834Z,14.14
2022-08-08T01:11:27.008Z,14.11
2022-08-08T01:15:00.395Z,14.09
2022-08-08T01:18:50.636Z,14.06
2022-08-08T01:22:07.195Z,14.00
2022-08-08T01:24:57.481Z,13.97
2022-08-08T01:27:44.290Z,13.95
2022-08-08T01:30:53.798Z,13.94
2022-08-08T01:33:43.024Z,13.92
2022-08-08T01:37:21.778Z,13.88
2022-08-08T01:40:28.330Z,13.84
2022-08-08T01:43:34.796Z,13.81
2022-08-08T01:46:41.387Z,13.78
2022-08-08T01:49:49.028Z,13.74
2022-08-08T01:54:08.258Z,13.72
2022-08-08T01:56:29.554Z,13.70
2022-08-08T02:00:00.771Z,13.67
2022-08-08T02:03:55.538Z,13.65
2022-08-08T02:06:57.685Z,13.64
2022-08-08T02:10:04.426Z,13.63
2022-08-08T02:13:01.168Z,13.63
2022-08-08T02:15:45.960Z,13.62
2022-08-08T02:18:35.080Z,13.62
2022-08-08T02:21:43.574Z,13.63
2022-08-08T02:24:52.553Z,13.63
2022-08-08T02:27:53.896Z,13.62
2022-08-08T02:31:43.463Z,13.60
2022-08-08T02:34:33.116Z,13.56
2022-08-08T02:37:52.520Z,13.54
2022-08-08T02:40:50.092Z,13.53
2022-08-08T02:44:42.437Z,13.53
2022-08-08T02:47:27.503Z,13.52
2022-08-08T02:50:47.289Z,13.51
2022-08-08T02:54:13.715Z,13.50
2022-08-08T02:57:25.814Z,13.48
2022-08-08T03:01:17.488Z,13.42
2022-08-08T03:05:05.456Z,13.36
2022-08-08T03:07:58.518Z,13.29
2022-08-08T03:11:13.883Z,13.24
2022-08-08T03:15:59.846Z,13.20
2022-08-08T03:18:04.862Z,13.18
2022-08-08T03:20:53.390Z,13.17
2022-08-08T03:23:39.687Z,13.16
2022-08-08T03:26:41.956Z,13.15
2022-08-08T03:29:54.783Z,13.13
2022-08-08T03:32:53.422Z,13.11
2022-08-08T03:35:33.231Z,13.09
2022-08-08T03:38:55.894Z,13.08
2022-08-08T03:40:56.879Z,13.08
2022-08-08T03:43:38.315Z,13.09
2022-08-08T03:46:09.707Z,13.10
2022-08-08T03:49:09.379Z,13.10
2022-08-08T03:51:47.093Z,13.10
2022-08-08T03:54:41.620Z,13.11
2022-08-08T03:58:32.186Z,13.13
2022-08-08T04:00:18.151Z,13.15
2022-08-08T04:02:57.657Z,13.18
2022-08-08T04:05:35.027Z,13.22
2022-08-08T04:08:11.868Z,13.25
2022-08-08T04:11:11.034Z,13.28
2022-08-08T04:14:03.170Z,13.32
2022-08-08T04:16:38.868Z,13.37
2022-08-08T04:19:23.757Z,13.42
2022-08-08T04:21:58.500Z,13.48
2022-08-08T04:24:32.099Z,13.53
2022-08-08T04:27:07.394Z,13.58
2022-08-08T04:29:40.040Z,13.65
2022-08-08T04:32:40.074Z,13.70
2022-08-08T04:35:13.491Z,13.74
2022-08-08T04:37:44.794Z,13.81
2022-08-08T04:40:19.865Z,13.87
2022-08-08T04:42:57.984Z,13.93
2022-08-08T04:45:42.968Z,14.00
2022-08-08T04:48:12.438Z,14.07
2022-08-08T04:50:46.230Z,14.17
2022-08-08T04:54:36.047Z,14.25
2022-08-08T04:56:07.778Z,14.35
2022-08-08T04:58:40.466Z,14.44
2022-08-08T05:01:11.269Z,14.55
2022-08-08T05:04:08.121Z,14.65
2022-08-08T05:06:39.473Z,14.77
2022-08-08T05:09:10.310Z,14.89
2022-08-08T05:11:42.079Z,15.01
2022-08-08T05:14:20.710Z,15.13
2022-08-08T05:17:01.089Z,15.26
2022-08-08T05:20:12.037Z,15.43
2022-08-08T05:22:32.105Z,15.65
2022-08-08T05:25:02.147Z,15.81
2022-08-08T05:27:41.515Z,16.01
2022-08-08T05:30:12.043Z,16.22
2022-08-08T05:32:46.172Z,16.45
2022-08-08T05:35:23.935Z,16.73
2022-08-08T05:38:11.556Z,17.03
2022-08-08T05:41:08.890Z,17.41
2022-08-08T05:44:03.184Z,17.76
2022-08-08T05:46:38.030Z,18.18
2022-08-08T05:49:11.249Z,18.59
2022-08-08T05:51:49.013Z,18.91
2022-08-08T05:54:49.654Z,19.17
2022-08-08T05:57:21.037Z,19.55
2022-08-08T06:00:22.773Z,20.01
2022-08-08T06:03:17.208Z,20.41
2022-08-08T06:05:59.614Z,20.88
2022-08-08T06:08:37.874Z,21.28
2022-08-08T06:11:13.425Z,21.74
2022-08-08T06:13:49.573Z,22.13
2022-08-08T06:16:24.994Z,22.60
2022-08-08T06:19:15.876Z,23.06
2022-08-08T06:21:51.760Z,23.36
2022-08-08T06:24:31.069Z,23.54
2022-08-08T06:27:10.854Z,23.66
2022-08-08T06:30:20.342Z,23.82
2022-08-08T06:33:02.246Z,23.98
2022-08-08T06:36:07.221Z,24.16
2022-08-08T06:38:29.823Z,24.20
2022-08-08T06:41:07.420Z,24.30
2022-08-08T06:43:40.118Z,24.58
2022-08-08T06:46:23.768Z,24.89
2022-08-08T06:48:54.162Z,24.97
2022-08-08T06:51:24.121Z,25.02
2022-08-08T06:54:03.200Z,25.16
2022-08-08T06:56:40.425Z,25.30
2022-08-08T06:59:16.488Z,25.32
2022-08-08T07:02:27.655Z,25.37
2022-08-08T07:05:07.020Z,25.64
2022-08-08T07:07:55.490Z,25.77
2022-08-08T07:10:28.085Z,25.81
2022-08-08T07:13:06.340Z,25.91
2022-08-08T07:16:04.863Z,26.10
2022-08-08T07:18:55.881Z,26.28
2022-08-08T07:21:42.335Z,26.60
2022-08-08T07:24:22.960Z,26.91
2022-08-08T07:26:59.282Z,27.12
2022-08-08T07:30:01.744Z,27.29
2022-08-08T07:32:27.734Z,27.31
2022-08-08T07:35:03.090Z,27.26
2022-08-08T07:37:56.338Z,27.08
2022-08-08T07:40:41.525Z,26.99
2022-08-08T07:43:13.861Z,27.02
2022-08-08T07:45:59.764Z,27.16
2022-08-08T07:48:37.996Z,27.17
2022-08-08T07:51:23.982Z,26.98
2022-08-08T07:54:36.737Z,27.01
2022-08-08T07:57:52.823Z,26.95
2022-08-08T08:00:32.213Z,26.78
2022-08-08T08:03:23.363Z,26.76
2022-08-08T08:05:58.407Z,26.91
2022-08-08T08:09:04.379Z,27.11
2022-08-08T08:11:52.542Z,27.18
2022-08-08T08:14:59.276Z,27.14
2022-08-08T08:17:47.705Z,27.15
2022-08-08T08:20:30.436Z,27.27
2022-08-08T08:23:05.384Z,27.44
2022-08-08T08:25:42.980Z,27.42
2022-08-08T08:28:23.947Z,27.54
2022-08-08T08:30:56.742Z,27.66
2022-08-08T08:33:27.132Z,27.81
2022-08-08T08:36:18.556Z,28.01
2022-08-08T08:38:49.566Z,28.05
2022-08-08T08:41:24.952Z,27.98
2022-08-08T08:44:14.283Z,28.05
2022-08-08T08:46:51.029Z,28.18
2022-08-08T08:49:33.546Z,28.31
2022-08-08T08:52:10.954Z,28.21
2022-08-08T08:54:40.793Z,27.79
2022-08-08T08:57:17.133Z,27.36
2022-08-08T08:59:59.074Z,26.99
2022-08-08T09:02:41.194Z,26.91
2022-08-08T09:05:48.699Z,27.08
2022-08-08T09:08:12.293Z,27.21
2022-08-08T09:10:43.672Z,27.18
2022-08-08T09:13:18.780Z,27.22
2022-08-08T09:16:02.843Z,27.38
2022-08-08T09:18:34.636Z,27.55
2022-08-08T09:21:58.406Z,27.75
2022-08-08T09:23:59.063Z,27.78
2022-08-08T09:26:52.551Z,27.70
2022-08-08T09:29:25.034Z,27.70
2022-08-08T09:32:05.305Z,27.78
2022-08-08T09:34:51.513Z,27.91
2022-08-08T09:37:57.866Z,28.01
2022-08-08T09:40:21.940Z,27.89
2022-08-08T09:43:40.709Z,27.68
2022-08-08T09:46:25.589Z,27.73
2022-08-08T09:49:18.639Z,27.90
2022-08-08T09:52:06.079Z,28.16
2022-08-08T09:54:49.974Z,28.34
2022-08-08T09:57:45.615Z,28.43
2022-08-08T10:00:53.204Z,28.28
2022-08-08T10:03:13.742Z,28.09
2022-08-08T10:05:46.801Z,27.85
2022-08-08T10:08:18.793Z,27.41
2022-08-08T10:12:22.054Z,27.12
2022-08-08T10:14:00.075Z,26.64
2022-08-08T10:16:46.914Z,26.30
2022-08-08T10:19:20.224Z,26.18
2022-08-08T10:21:55.319Z,26.08
2022-08-08T10:24:29.224Z,26.13
2022-08-08T10:27:06.239Z,26.35
2022-08-08T10:29:58.445Z,26.48
2022-08-08T10:32:33.917Z,26.35
2022-08-08T10:36:01.813Z,26.13
2022-08-08T10:38:08.715Z,25.83
2022-08-08T10:40:40.380Z,25.60
2022-08-08T10:43:20.034Z,25.40
2022-08-08T10:45:55.719Z,25.23
2022-08-08T10:48:58.486Z,25.14
2022-08-08T10:51:40.962Z,25.02
2022-08-08T10:54:21.585Z,25.08
2022-08-08T10:57:04.528Z,25.20
2022-08-08T10:59:39.401Z,25.35
2022-08-08T11:02:11.599Z,25.44
2022-08-08T11:04:53.104Z,25.46
2022-08-08T11:08:31.677Z,25.46
2022-08-08T11:10:29.689Z,25.34
2022-08-08T11:13:18.967Z,25.25
2022-08-08T11:15:58.973Z,25.24
2022-08-08T11:18:34.336Z,25.22
2022-08-08T11:21:09.842Z,25.13
2022-08-08T11:23:44.834Z,25.13
2022-08-08T11:26:38.295Z,25.10
2022-08-08T11:29:41.475Z,25.03
2022-08-08T11:32:14.924Z,25.01
2022-08-08T11:38:35.275Z,25.00
2022-08-08T11:40:32.622Z,25.03
2022-08-08T11:43:02.654Z,25.05
2022-08-08T11:45:43.796Z,25.11
2022-08-08T11:48:23.750Z,25.15
2022-08-08T11:51:01.037Z,25.06
2022-08-08T11:53:59.078Z,24.98
2022-08-08T11:56:42.209Z,24.90
2022-08-08T11:59:16.066Z,24.82
2022-08-08T12:01:45.092Z,24.84
2022-08-08T12:04:14.140Z,24.88
2022-08-08T12:06:44.805Z,24.92
2022-08-08T12:09:19.013Z,24.91
2022-08-08T12:11:50.355Z,24.78
2022-08-08T12:14:29.286Z,24.73
2022-08-08T12:17:07.988Z,24.73
2022-08-08T12:19:51.024Z,24.80
2022-08-08T12:22:21.343Z,24.89
2022-08-08T12:24:56.100Z,24.98
2022-08-08T12:27:27.020Z,25.08
2022-08-08T12:30:18.631Z,25.13
2022-08-08T12:32:55.091Z,25.02
2022-08-08T12:35:24.334Z,24.94
2022-08-08T12:38:08.882Z,24.91
2022-08-08T12:40:55.874Z,24.92
2022-08-08T12:43:48.006Z,24.86
2022-08-08T12:46:26.640Z,24.83
2022-08-08T12:51:58.372Z,24.87
2022-08-08T12:54:37.705Z,24.84
2022-08-08T12:57:38.343Z,24.87
2022-08-08T13:00:34.116Z,24.88
2022-08-08T13:03:11.252Z,24.87
2022-08-08T13:06:05.035Z,24.90
2022-08-08T13:08:53.509Z,24.96
2022-08-08T13:12:24.624Z,25.05
2022-08-08T13:14:53.478Z,25.13
2022-08-08T13:18:09.407Z,25.11
2022-08-08T13:20:22.902Z,25.01
2022-08-08T13:25:50.081Z,24.78
2022-08-08T13:28:32.122Z,24.74
2022-08-08T13:31:05.355Z,24.65
2022-08-08T13:33:42.103Z,24.60
2022-08-08T13:36:12.571Z,24.55
2022-08-08T13:38:42.739Z,24.52
2022-08-08T13:41:16.559Z,24.52
2022-08-08T13:43:50.735Z,24.52
2022-08-08T13:46:26.960Z,24.48
2022-08-08T13:49:12.225Z,24.44
2022-08-08T13:52:10.158Z,24.37
2022-08-08T13:54:49.438Z,24.34
2022-08-08T13:58:06.521Z,24.32
2022-08-08T14:00:21.582Z,24.34
2022-08-08T14:03:10.917Z,24.42
2022-08-08T14:06:00.774Z,24.51
2022-08-08T14:08:35.158Z,24.59
2022-08-08T14:11:04.728Z,24.62
2022-08-08T14:13:35.828Z,24.64
2022-08-08T14:16:25.509Z,24.66
2022-08-08T14:19:02.910Z,24.68
2022-08-08T14:21:52.266Z,24.74
2022-08-08T14:24:34.085Z,24.84
2022-08-08T14:27:07.903Z,24.93
2022-08-08T14:29:39.484Z,24.97
2022-08-08T14:32:17.870Z,24.98
2022-08-08T14:35:04.533Z,24.94
2022-08-08T14:37:59.752Z,24.92
2022-08-08T14:40:30.401Z,24.87
2022-08-08T14:43:01.402Z,24.83
2022-08-08T14:46:01.343Z,24.80
2022-08-08T14:48:34.099Z,24.75
2022-08-08T14:51:06.978Z,24.66
2022-08-08T14:53:55.012Z,24.59
2022-08-08T14:56:26.441Z,24.53
2022-08-08T14:58:56.170Z,24.47
2022-08-08T15:01:41.024Z,24.42
2022-08-08T15:04:11.504Z,24.38
2022-08-08T15:06:42.474Z,24.36
2022-08-08T15:09:13.315Z,24.34
2022-08-08T15:11:46.261Z,24.32
2022-08-08T15:14:25.175Z,24.32
2022-08-08T15:16:57.365Z,24.32
2022-08-08T15:19:32.042Z,24.35
2022-08-08T15:22:01.211Z,24.36
2022-08-08T15:24:36.483Z,24.39
2022-08-08T15:27:58.380Z,24.40
2022-08-08T15:29:54.718Z,24.43
2022-08-08T15:32:31.237Z,24.44
2022-08-08T15:35:01.117Z,24.42
2022-08-08T15:37:33.993Z,24.40
2022-08-08T15:40:03.956Z,24.42
2022-08-08T15:42:33.375Z,24.41
2022-08-08T15:45:02.724Z,24.42
2022-08-08T15:47:32.360Z,24.47
2022-08-08T15:50:02.376Z,24.50
2022-08-08T15:52:34.210Z,24.53
2022-08-08T15:55:09.325Z,24.55
2022-08-08T15:57:39.809Z,24.57
2022-08-08T16:00:27.273Z,24.58
2022-08-08T16:02:59.128Z,24.50
2022-08-08T16:05:35.623Z,24.42
2022-08-08T16:08:17.797Z,24.34
2022-08-08T16:13:04.839Z,24.29
2022-08-08T16:13:43.872Z,24.25
2022-08-08T16:16:17.486Z,24.19
2022-08-08T16:18:56.322Z,24.16
2022-08-08T16:21:31.463Z,24.10
2022-08-08T16:24:10.142Z,24.05
2022-08-08T16:26:42.438Z,24.01
2022-08-08T16:29:16.375Z,23.96
2022-08-08T16:31:50.159Z,23.93
2022-08-08T16:34:21.833Z,23.89
2022-08-08T16:36:53.742Z,23.86
2022-08-08T16:39:49.102Z,23.84
2022-08-08T16:42:18.701Z,23.81
2022-08-08T16:44:54.418Z,23.78
2022-08-08T16:47:40.070Z,23.77
2022-08-08T16:50:16.576Z,23.75
2022-08-08T16:55:06.930Z,23.75
2022-08-08T16:55:52.336Z,23.74
2022-08-08T16:58:26.729Z,23.74
2022-08-08T17:00:57.891Z,23.76
2022-08-08T17:03:58.591Z,23.77
2022-08-08T17:06:36.062Z,23.75
2022-08-08T17:09:15.605Z,23.74
2022-08-08T17:11:49.060Z,23.76
2022-08-08T17:14:27.262Z,23.74
2022-08-08T17:16:58.820Z,23.73
2022-08-08T17:19:31.956Z,23.71
2022-08-08T17:22:10.990Z,23.69
2022-08-08T17:24:43.629Z,23.68
2022-08-08T17:27:28.956Z,23.57
2022-08-08T17:29:58.911Z,23.52
2022-08-08T17:32:34.389Z,23.51
2022-08-08T17:35:56.001Z,23.48
2022-08-08T17:38:06.823Z,23.43
2022-08-08T17:40:36.389Z,23.40
2022-08-08T17:43:08.153Z,23.37
2022-08-08T17:45:41.714Z,23.34
2022-08-08T17:48:21.057Z,23.30
2022-08-08T17:51:01.206Z,23.24
2022-08-08T17:53:42.621Z,23.19
2022-08-08T17:56:15.689Z,23.13
2022-08-08T17:58:46.616Z,23.06
2022-08-08T18:01:43.636Z,22.99
2022-08-08T18:04:09.280Z,22.90
2022-08-08T18:06:51.234Z,22.82
2022-08-08T18:09:20.448Z,22.75
2022-08-08T18:11:51.062Z,22.68
2022-08-08T18:14:22.347Z,22.61
2022-08-08T18:16:52.560Z,22.52
2022-08-08T18:19:24.135Z,22.41
2022-08-08T18:21:59.772Z,22.31
2022-08-08T18:24:30.575Z,22.20
2022-08-08T18:27:17.149Z,22.08
2022-08-08T18:29:46.993Z,21.96
2022-08-08T18:32:17.825Z,21.85
2022-08-08T18:34:49.883Z,21.74
2022-08-08T18:37:34.788Z,21.63
2022-08-08T18:40:05.446Z,21.52
2022-08-08T18:42:45.666Z,21.44
2022-08-08T18:45:45.173Z,21.34
2022-08-08T18:48:18.413Z,21.24
2022-08-08T18:50:50.217Z,21.18
2022-08-08T18:54:00.542Z,21.12
2022-08-08T18:56:34.182Z,20.99
2022-08-08T18:59:22.917Z,20.94
2022-08-08T19:02:28.557Z,20.91
2022-08-08T19:04:49.733Z,20.87
2022-08-08T19:07:30.049Z,20.85
2022-08-08T19:10:17.829Z,20.82
2022-08-08T19:12:58.764Z,20.78
2022-08-08T19:15:37.376Z,20.76
2022-08-08T19:18:33.331Z,20.74
2022-08-08T19:21:00.006Z,20.71
2022-08-08T19:23:35.288Z,20.67
2022-08-08T19:26:30.382Z,20.64
2022-08-08T19:29:05.102Z,20.59
2022-08-08T19:32:33.320Z,20.56
2022-08-08T19:36:07.897Z,20.40
2022-08-08T19:39:37.448Z,20.35
2022-08-08T19:46:46.717Z,20.31
2022-08-08T19:50:41.424Z,20.26
2022-08-08T19:54:37.999Z,20.21
2022-08-08T19:57:15.861Z,20.16
2022-08-08T19:59:54.922Z,20.15
2022-08-08T20:02:27.044Z,20.16
2022-08-08T20:05:00.808Z,20.15
2022-08-08T20:08:29.473Z,20.12
2022-08-08T20:10:23.357Z,20.07
2022-08-08T20:12:59.140Z,20.04
2022-08-08T20:16:00.019Z,20.00
2022-08-08T20:18:52.040Z,19.95
2022-08-08T20:21:23.253Z,19.89
2022-08-08T20:23:57.772Z,19.87
2022-08-08T20:26:41.811Z,19.83
2022-08-08T20:29:45.608Z,19.77
2022-08-08T20:32:28.076Z,19.72
2022-08-08T20:35:01.177Z,19.68
2022-08-08T20:37:47.225Z,19.66
2022-08-08T20:40:38.699Z,19.63
2022-08-08T20:43:08.658Z,19.59
2022-08-08T20:46:02.313Z,19.57
2022-08-08T20:48:33.551Z,19.55
2022-08-08T20:51:06.393Z,19.53
2022-08-08T20:54:00.727Z,19.51
2022-08-08T20:56:35.393Z,19.47
2022-08-08T20:59:09.195Z,19.44
2022-08-08T21:02:06.797Z,19.43
2022-08-08T21:04:27.838Z,19.40
2022-08-08T21:06:57.323Z,19.38
2022-08-08T21:09:31.598Z,19.37
2022-08-08T21:12:09.064Z,19.35
2022-08-08T21:14:49.154Z,19.33
2022-08-08T21:17:18.193Z,19.30
2022-08-08T21:19:48.700Z,19.32
2022-08-08T21:22:17.932Z,19.30
2022-08-08T21:24:52.814Z,19.29
2022-08-08T21:28:05.637Z,19.28
2022-08-08T21:30:19.226Z,19.24
2022-08-08T21:32:53.480Z,19.20
2022-08-08T21:36:17.842Z,19.18
2022-08-08T21:38:17.043Z,19.08
2022-08-08T21:40:56.431Z,19.03
2022-08-08T21:43:34.303Z,19.02
2022-08-08T21:48:21.282Z,19.00
2022-08-08T21:48:59.787Z,18.98
2022-08-08T21:54:16.857Z,18.97
2022-08-08T21:54:53.945Z,18.95
2022-08-08T21:57:10.441Z,18.93
2022-08-08T22:00:02.753Z,18.93
2022-08-08T22:02:29.187Z,18.91
2022-08-08T22:04:59.550Z,18.89
2022-08-08T22:07:39.535Z,18.88
2022-08-08T22:10:32.281Z,18.85
2022-08-08T22:13:18.634Z,18.81
2022-08-08T22:15:59.456Z,18.77
2022-08-08T22:18:32.538Z,18.72
2022-08-08T22:21:14.172Z,18.66
2022-08-08T22:23:59.675Z,18.55
2022-08-08T22:27:02.627Z,18.51
2022-08-08T22:29:59.127Z,18.47
2022-08-08T22:32:21.766Z,18.45
2022-08-08T22:34:51.580Z,18.45
2022-08-08T22:37:49.018Z,18.42
2022-08-08T22:40:17.093Z,18.37
2022-08-08T22:42:47.505Z,18.36
2022-08-08T22:45:16.698Z,18.37
2022-08-08T22:47:48.723Z,18.39
2022-08-08T22:50:26.883Z,18.42
2022-08-08T22:54:34.034Z,18.44
2022-08-08T22:56:01.273Z,18.43
2022-08-08T22:58:35.063Z,18.42
2022-08-08T23:01:30.302Z,18.40
2022-08-08T23:04:00.216Z,18.35
2022-08-08T23:06:29.559Z,18.31
2022-08-08T23:09:00.445Z,18.30
2022-08-08T23:12:18.351Z,18.30
2022-08-08T23:14:25.602Z,18.31
2022-08-08T23:16:59.689Z,18.32
2022-08-08T23:19:32.610Z,18.36
2022-08-08T23:22:04.979Z,18.39
2022-08-08T23:24:41.197Z,18.41
2022-08-08T23:27:37.540Z,18.42
2022-08-08T23:30:09.446Z,18.42
2022-08-08T23:32:41.670Z,18.41
2022-08-08T23:35:17.249Z,18.40
2022-08-08T23:38:02.332Z,18.38
2022-08-08T23:40:35.670Z,18.38
2022-08-08T23:43:05.202Z,18.38
2022-08-08T23:49:01.306Z,18.43
2022-08-08T23:49:07.120Z,18.40
2022-08-08T23:51:42.232Z,18.45
2022-08-08T23:54:42.126Z,18.46
2022-08-08T23:56:59.165Z,18.46
2022-08-08T23:59:30.001Z,18.46
